Decoded Metar for PADL (DILLINGHAM in AK, USA) (IATA:DLG) | Meteo·Mobile Aviation Weather
aviador You're here:

PADL Decoded Metar

DILLINGHAM in AK, USA
Report Time2019-01-16 17:48:00
UTC Time2019-01-16 18:39:31
Flight Rules vfr VFR
Wind360° at 14 Gusting to 22 kt
W.Decomp.*RWY 01: 12.7 kt HW 5.9 kt LCW
Visibility9999 m
Phenomena:N/A
Clouds:Overcast 055 Hf
Expected CloudBase > 2,000 ft AGL from Temp-Dew spread
Ceiling5,500 ft
Temp-4°C (ISA -19)
Dew Point-9°C (69% RH)
AAT-12.0°C
QNH998 hPa
Density Alt-1,677 ft
Elevation85 ft
Report Wrong Elevation
Raw Report
PADL 161748Z 36014G22KT 10SM OVC055 M04/M09 A2948=

Extra information for PADL:More info

Metar Taf Metar & Taf Last 4 Metars F.Rules Stats Wind Profile Meteogram Temp Stats Airport Information Weather charts Add Link Nearby VenuesMetar ALERT Operation Metar Decoded Social comments

AIRNAV info for PADL